sensor_id;sensor_type;location;lat;lon;timestamp;P1;durP1;ratioP1;P2;durP2;ratioP2
52708;SDS011;38606;52.986;6.980;2023-08-30T00:00:38;17.95;;;15.55;;
52708;SDS011;38606;52.986;6.980;2023-08-30T00:03:04;17.92;;;15.45;;
52708;SDS011;38606;52.986;6.980;2023-08-30T00:05:31;19.58;;;17.10;;
52708;SDS011;38606;52.986;6.980;2023-08-30T00:07:57;18.40;;;15.55;;
52708;SDS011;38606;52.986;6.980;2023-08-30T00:10:23;16.80;;;15.00;;
52708;SDS011;38606;52.986;6.980;2023-08-30T00:12:49;20.48;;;15.60;;
52708;SDS011;38606;52.986;6.980;2023-08-30T00:15:15;18.45;;;15.60;;
52708;SDS011;38606;52.986;6.980;2023-08-30T00:17:40;18.17;;;15.55;;
52708;SDS011;38606;52.986;6.980;2023-08-30T00:20:06;17.70;;;14.60;;
52708;SDS011;38606;52.986;6.980;2023-08-30T00:22:33;17.95;;;15.85;;
52708;SDS011;38606;52.986;6.980;2023-08-30T00:25:00;19.40;;;15.93;;
52708;SDS011;38606;52.986;6.980;2023-08-30T00:27:26;19.35;;;16.30;;
52708;SDS011;38606;52.986;6.980;2023-08-30T00:29:52;18.55;;;16.30;;
52708;SDS011;38606;52.986;6.980;2023-08-30T00:32:17;19.42;;;17.13;;
52708;SDS011;38606;52.986;6.980;2023-08-30T00:34:43;19.13;;;16.38;;
52708;SDS011;38606;52.986;6.980;2023-08-30T00:37:09;24.80;;;15.43;;
52708;SDS011;38606;52.986;6.980;2023-08-30T00:39:38;17.55;;;15.60;;
52708;SDS011;38606;52.986;6.980;2023-08-30T00:42:04;17.88;;;15.35;;
52708;SDS011;38606;52.986;6.980;2023-08-30T00:44:32;18.02;;;15.32;;
52708;SDS011;38606;52.986;6.980;2023-08-30T00:46:59;19.30;;;15.55;;
52708;SDS011;38606;52.986;6.980;2023-08-30T00:49:26;20.98;;;16.13;;
52708;SDS011;38606;52.986;6.980;2023-08-30T00:51:53;18.80;;;16.80;;
52708;SDS011;38606;52.986;6.980;2023-08-30T00:54:19;17.80;;;15.80;;
52708;SDS011;38606;52.986;6.980;2023-08-30T00:56:46;22.63;;;15.30;;
52708;SDS011;38606;52.986;6.980;2023-08-30T00:59:12;18.40;;;16.25;;
52708;SDS011;38606;52.986;6.980;2023-08-30T01:01:39;19.77;;;16.92;;
52708;SDS011;38606;52.986;6.980;2023-08-30T01:04:06;20.20;;;17.27;;
52708;SDS011;38606;52.986;6.980;2023-08-30T01:06:32;18.55;;;16.58;;
52708;SDS011;38606;52.986;6.980;2023-08-30T01:09:00;20.98;;;18.20;;
52708;SDS011;38606;52.986;6.980;2023-08-30T01:11:46;20.42;;;16.88;;
52708;SDS011;38606;52.986;6.980;2023-08-30T01:14:20;20.08;;;17.08;;
52708;SDS011;38606;52.986;6.980;2023-08-30T01:16:48;18.75;;;16.67;;
52708;SDS011;38606;52.986;6.980;2023-08-30T01:25:08;21.60;;;16.17;;
52708;SDS011;38606;52.986;6.980;2023-08-30T01:27:41;18.88;;;15.57;;
52708;SDS011;38606;52.986;6.980;2023-08-30T01:30:08;19.38;;;15.55;;
52708;SDS011;38606;52.986;6.980;2023-08-30T01:32:36;20.45;;;16.25;;
52708;SDS011;38606;52.986;6.980;2023-08-30T01:35:03;19.80;;;16.75;;
52708;SDS011;38606;52.986;6.980;2023-08-30T01:37:30;19.58;;;16.52;;
52708;SDS011;38606;52.986;6.980;2023-08-30T01:39:57;18.90;;;15.30;;
52708;SDS011;38606;52.986;6.980;2023-08-30T01:42:24;20.45;;;15.80;;
52708;SDS011;38606;52.986;6.980;2023-08-30T01:44:51;19.02;;;15.25;;
52708;SDS011;38606;52.986;6.980;2023-08-30T01:47:22;20.15;;;16.80;;
52708;SDS011;38606;52.986;6.980;2023-08-30T01:49:50;18.52;;;15.90;;
52708;SDS011;38606;52.986;6.980;2023-08-30T01:52:17;20.02;;;16.20;;
52708;SDS011;38606;52.986;6.980;2023-08-30T01:54:44;18.67;;;16.67;;
52708;SDS011;38606;52.986;6.980;2023-08-30T01:57:11;18.92;;;16.58;;
52708;SDS011;38606;52.986;6.980;2023-08-30T01:59:37;18.08;;;15.38;;
52708;SDS011;38606;52.986;6.980;2023-08-30T02:02:03;19.05;;;16.80;;
52708;SDS011;38606;52.986;6.980;2023-08-30T02:04:29;19.85;;;16.77;;
52708;SDS011;38606;52.986;6.980;2023-08-30T02:09:28;20.73;;;17.23;;
52708;SDS011;38606;52.986;6.980;2023-08-30T02:12:02;24.08;;;17.15;;
52708;SDS011;38606;52.986;6.980;2023-08-30T02:14:32;19.83;;;16.48;;
52708;SDS011;38606;52.986;6.980;2023-08-30T02:16:58;20.15;;;16.58;;
52708;SDS011;38606;52.986;6.980;2023-08-30T02:19:24;22.98;;;16.23;;
52708;SDS011;38606;52.986;6.980;2023-08-30T02:21:51;19.17;;;16.25;;
52708;SDS011;38606;52.986;6.980;2023-08-30T02:24:17;20.55;;;16.35;;
52708;SDS011;38606;52.986;6.980;2023-08-30T02:26:42;20.60;;;16.38;;
52708;SDS011;38606;52.986;6.980;2023-08-30T02:29:08;18.60;;;15.38;;
52708;SDS011;38606;52.986;6.980;2023-08-30T02:31:35;19.17;;;15.27;;
52708;SDS011;38606;52.986;6.980;2023-08-30T02:34:00;18.05;;;15.63;;
52708;SDS011;38606;52.986;6.980;2023-08-30T02:36:27;18.35;;;14.75;;
52708;SDS011;38606;52.986;6.980;2023-08-30T02:38:53;16.02;;;14.32;;
52708;SDS011;38606;52.986;6.980;2023-08-30T02:41:18;17.17;;;14.75;;
52708;SDS011;38606;52.986;6.980;2023-08-30T02:43:47;17.80;;;14.98;;
52708;SDS011;38606;52.986;6.980;2023-08-30T02:46:13;16.15;;;13.68;;
52708;SDS011;38606;52.986;6.980;2023-08-30T02:48:39;19.92;;;13.63;;
52708;SDS011;38606;52.986;6.980;2023-08-30T02:51:05;16.77;;;14.23;;
52708;SDS011;38606;52.986;6.980;2023-08-30T02:53:30;18.35;;;14.52;;
52708;SDS011;38606;52.986;6.980;2023-08-30T02:55:56;16.45;;;13.82;;
52708;SDS011;38606;52.986;6.980;2023-08-30T02:58:22;14.60;;;13.05;;
52708;SDS011;38606;52.986;6.980;2023-08-30T03:00:48;17.48;;;13.75;;
52708;SDS011;38606;52.986;6.980;2023-08-30T03:03:14;17.30;;;14.27;;
52708;SDS011;38606;52.986;6.980;2023-08-30T03:05:40;15.73;;;13.98;;
52708;SDS011;38606;52.986;6.980;2023-08-30T03:08:05;16.55;;;14.32;;
52708;SDS011;38606;52.986;6.980;2023-08-30T03:10:31;16.17;;;13.07;;
52708;SDS011;38606;52.986;6.980;2023-08-30T03:12:57;17.77;;;14.05;;
52708;SDS011;38606;52.986;6.980;2023-08-30T03:15:23;18.30;;;14.10;;
52708;SDS011;38606;52.986;6.980;2023-08-30T03:17:48;16.25;;;13.07;;
52708;SDS011;38606;52.986;6.980;2023-08-30T03:20:14;14.02;;;12.10;;
52708;SDS011;38606;52.986;6.980;2023-08-30T03:22:40;16.50;;;12.50;;
52708;SDS011;38606;52.986;6.980;2023-08-30T03:25:06;17.77;;;14.35;;
52708;SDS011;38606;52.986;6.980;2023-08-30T03:27:34;14.13;;;12.15;;
52708;SDS011;38606;52.986;6.980;2023-08-30T03:30:01;14.05;;;12.55;;
52708;SDS011;38606;52.986;6.980;2023-08-30T03:32:27;15.02;;;12.93;;
52708;SDS011;38606;52.986;6.980;2023-08-30T03:34:53;14.40;;;12.85;;
52708;SDS011;38606;52.986;6.980;2023-08-30T03:37:18;15.55;;;13.05;;
52708;SDS011;38606;52.986;6.980;2023-08-30T03:39:44;17.15;;;12.93;;
52708;SDS011;38606;52.986;6.980;2023-08-30T03:42:10;16.42;;;13.15;;
52708;SDS011;38606;52.986;6.980;2023-08-30T03:44:37;15.50;;;12.48;;
52708;SDS011;38606;52.986;6.980;2023-08-30T03:47:03;15.95;;;12.48;;
52708;SDS011;38606;52.986;6.980;2023-08-30T03:49:30;17.35;;;13.65;;
52708;SDS011;38606;52.986;6.980;2023-08-30T03:51:56;14.32;;;12.63;;
52708;SDS011;38606;52.986;6.980;2023-08-30T03:54:22;17.05;;;13.52;;
52708;SDS011;38606;52.986;6.980;2023-08-30T03:56:47;18.27;;;14.05;;
52708;SDS011;38606;52.986;6.980;2023-08-30T03:59:13;16.48;;;13.25;;
52708;SDS011;38606;52.986;6.980;2023-08-30T04:01:39;19.48;;;14.23;;
52708;SDS011;38606;52.986;6.980;2023-08-30T04:04:04;17.20;;;12.82;;
52708;SDS011;38606;52.986;6.980;2023-08-30T04:06:30;17.45;;;13.60;;
52708;SDS011;38606;52.986;6.980;2023-08-30T04:08:56;20.55;;;13.70;;
52708;SDS011;38606;52.986;6.980;2023-08-30T04:11:22;18.15;;;14.32;;
52708;SDS011;38606;52.986;6.980;2023-08-30T04:13:48;20.42;;;14.25;;
52708;SDS011;38606;52.986;6.980;2023-08-30T04:16:14;18.13;;;14.38;;
52708;SDS011;38606;52.986;6.980;2023-08-30T04:18:40;19.00;;;14.88;;
52708;SDS011;38606;52.986;6.980;2023-08-30T04:21:05;19.13;;;15.05;;
52708;SDS011;38606;52.986;6.980;2023-08-30T04:23:33;19.02;;;14.45;;
52708;SDS011;38606;52.986;6.980;2023-08-30T04:25:59;17.17;;;14.35;;
52708;SDS011;38606;52.986;6.980;2023-08-30T04:28:25;18.52;;;13.82;;
52708;SDS011;38606;52.986;6.980;2023-08-30T04:30:55;18.77;;;14.57;;
52708;SDS011;38606;52.986;6.980;2023-08-30T04:33:22;21.65;;;15.00;;
52708;SDS011;38606;52.986;6.980;2023-08-30T04:35:51;19.75;;;14.35;;
52708;SDS011;38606;52.986;6.980;2023-08-30T04:38:18;22.25;;;14.85;;
52708;SDS011;38606;52.986;6.980;2023-08-30T04:40:45;20.73;;;13.90;;
52708;SDS011;38606;52.986;6.980;2023-08-30T04:43:11;19.83;;;14.77;;
52708;SDS011;38606;52.986;6.980;2023-08-30T04:45:37;17.30;;;14.57;;
52708;SDS011;38606;52.986;6.980;2023-08-30T04:48:03;21.38;;;14.77;;
52708;SDS011;38606;52.986;6.980;2023-08-30T04:50:29;15.65;;;12.77;;
52708;SDS011;38606;52.986;6.980;2023-08-30T04:52:55;17.75;;;14.32;;
52708;SDS011;38606;52.986;6.980;2023-08-30T04:55:23;19.25;;;14.68;;
52708;SDS011;38606;52.986;6.980;2023-08-30T04:57:50;20.05;;;14.48;;
52708;SDS011;38606;52.986;6.980;2023-08-30T05:00:16;18.25;;;14.27;;
52708;SDS011;38606;52.986;6.980;2023-08-30T05:02:42;17.02;;;14.05;;
52708;SDS011;38606;52.986;6.980;2023-08-30T05:05:10;16.95;;;14.27;;
52708;SDS011;38606;52.986;6.980;2023-08-30T05:07:35;20.15;;;15.18;;
52708;SDS011;38606;52.986;6.980;2023-08-30T05:10:01;22.55;;;15.35;;
52708;SDS011;38606;52.986;6.980;2023-08-30T05:12:28;22.00;;;15.57;;
52708;SDS011;38606;52.986;6.980;2023-08-30T05:14:53;20.35;;;15.40;;
52708;SDS011;38606;52.986;6.980;2023-08-30T05:17:19;19.58;;;14.70;;
52708;SDS011;38606;52.986;6.980;2023-08-30T05:19:45;19.55;;;14.40;;
52708;SDS011;38606;52.986;6.980;2023-08-30T05:22:11;18.42;;;14.30;;
52708;SDS011;38606;52.986;6.980;2023-08-30T05:24:36;16.58;;;13.35;;
52708;SDS011;38606;52.986;6.980;2023-08-30T05:27:02;19.15;;;15.43;;
52708;SDS011;38606;52.986;6.980;2023-08-30T05:29:28;21.38;;;15.43;;
52708;SDS011;38606;52.986;6.980;2023-08-30T05:31:54;17.88;;;14.05;;
52708;SDS011;38606;52.986;6.980;2023-08-30T05:34:19;18.17;;;13.65;;
52708;SDS011;38606;52.986;6.980;2023-08-30T05:36:45;18.15;;;13.25;;
52708;SDS011;38606;52.986;6.980;2023-08-30T05:39:11;17.50;;;12.85;;
52708;SDS011;38606;52.986;6.980;2023-08-30T05:41:37;18.10;;;14.20;;
52708;SDS011;38606;52.986;6.980;2023-08-30T05:44:03;19.27;;;13.60;;
52708;SDS011;38606;52.986;6.980;2023-08-30T05:46:29;16.85;;;13.35;;
52708;SDS011;38606;52.986;6.980;2023-08-30T05:48:55;17.52;;;13.30;;
52708;SDS011;38606;52.986;6.980;2023-08-30T05:51:21;21.55;;;14.38;;
52708;SDS011;38606;52.986;6.980;2023-08-30T05:53:46;20.25;;;13.32;;
52708;SDS011;38606;52.986;6.980;2023-08-30T05:56:12;18.45;;;13.88;;
52708;SDS011;38606;52.986;6.980;2023-08-30T05:58:38;20.13;;;14.55;;
52708;SDS011;38606;52.986;6.980;2023-08-30T06:01:04;17.38;;;13.50;;
52708;SDS011;38606;52.986;6.980;2023-08-30T06:03:31;19.17;;;13.73;;
52708;SDS011;38606;52.986;6.980;2023-08-30T06:05:57;18.60;;;13.95;;
52708;SDS011;38606;52.986;6.980;2023-08-30T06:08:23;17.08;;;13.18;;
52708;SDS011;38606;52.986;6.980;2023-08-30T06:10:48;21.20;;;13.82;;
52708;SDS011;38606;52.986;6.980;2023-08-30T06:13:14;18.20;;;13.52;;
52708;SDS011;38606;52.986;6.980;2023-08-30T06:15:40;23.80;;;15.15;;
52708;SDS011;38606;52.986;6.980;2023-08-30T06:18:06;24.10;;;14.13;;
52708;SDS011;38606;52.986;6.980;2023-08-30T06:20:32;22.85;;;13.93;;
52708;SDS011;38606;52.986;6.980;2023-08-30T06:22:58;23.08;;;15.15;;
52708;SDS011;38606;52.986;6.980;2023-08-30T06:25:24;18.10;;;13.00;;
52708;SDS011;38606;52.986;6.980;2023-08-30T06:27:57;16.33;;;12.35;;
52708;SDS011;38606;52.986;6.980;2023-08-30T06:30:27;18.30;;;12.50;;
52708;SDS011;38606;52.986;6.980;2023-08-30T06:32:54;19.83;;;12.00;;
52708;SDS011;38606;52.986;6.980;2023-08-30T06:35:20;16.92;;;12.63;;
52708;SDS011;38606;52.986;6.980;2023-08-30T06:37:46;14.82;;;12.35;;
52708;SDS011;38606;52.986;6.980;2023-08-30T06:40:12;20.20;;;11.85;;
52708;SDS011;38606;52.986;6.980;2023-08-30T06:42:38;19.75;;;12.57;;
52708;SDS011;38606;52.986;6.980;2023-08-30T06:45:04;21.73;;;12.77;;
52708;SDS011;38606;52.986;6.980;2023-08-30T06:47:30;17.60;;;12.48;;
52708;SDS011;38606;52.986;6.980;2023-08-30T06:49:55;17.98;;;11.20;;
52708;SDS011;38606;52.986;6.980;2023-08-30T06:52:21;15.68;;;10.55;;
52708;SDS011;38606;52.986;6.980;2023-08-30T06:54:47;16.38;;;11.18;;
52708;SDS011;38606;52.986;6.980;2023-08-30T06:57:13;15.15;;;11.57;;
52708;SDS011;38606;52.986;6.980;2023-08-30T06:59:38;15.52;;;10.95;;
52708;SDS011;38606;52.986;6.980;2023-08-30T07:02:04;14.63;;;11.48;;
52708;SDS011;38606;52.986;6.980;2023-08-30T07:04:30;15.13;;;11.73;;
52708;SDS011;38606;52.986;6.980;2023-08-30T07:06:56;17.13;;;10.73;;
52708;SDS011;38606;52.986;6.980;2023-08-30T07:09:22;15.82;;;12.32;;
52708;SDS011;38606;52.986;6.980;2023-08-30T07:11:53;16.80;;;11.45;;
52708;SDS011;38606;52.986;6.980;2023-08-30T07:14:22;17.40;;;12.27;;
52708;SDS011;38606;52.986;6.980;2023-08-30T07:16:47;14.10;;;11.48;;
52708;SDS011;38606;52.986;6.980;2023-08-30T07:19:14;16.75;;;12.15;;
52708;SDS011;38606;52.986;6.980;2023-08-30T07:21:41;16.38;;;11.95;;
52708;SDS011;38606;52.986;6.980;2023-08-30T07:24:10;16.40;;;11.40;;
52708;SDS011;38606;52.986;6.980;2023-08-30T07:26:36;15.60;;;12.25;;
52708;SDS011;38606;52.986;6.980;2023-08-30T07:29:02;16.00;;;11.82;;
52708;SDS011;38606;52.986;6.980;2023-08-30T07:31:30;14.48;;;11.13;;
52708;SDS011;38606;52.986;6.980;2023-08-30T07:33:56;18.08;;;11.75;;
52708;SDS011;38606;52.986;6.980;2023-08-30T07:36:23;15.77;;;11.80;;
52708;SDS011;38606;52.986;6.980;2023-08-30T07:38:49;16.55;;;11.00;;
52708;SDS011;38606;52.986;6.980;2023-08-30T07:41:14;18.02;;;11.77;;
52708;SDS011;38606;52.986;6.980;2023-08-30T07:43:40;15.48;;;12.02;;
52708;SDS011;38606;52.986;6.980;2023-08-30T07:46:06;15.40;;;10.93;;
52708;SDS011;38606;52.986;6.980;2023-08-30T07:48:31;14.63;;;11.32;;
52708;SDS011;38606;52.986;6.980;2023-08-30T07:50:57;16.35;;;11.15;;
52708;SDS011;38606;52.986;6.980;2023-08-30T07:53:23;16.30;;;11.65;;
52708;SDS011;38606;52.986;6.980;2023-08-30T07:55:49;17.63;;;11.73;;
52708;SDS011;38606;52.986;6.980;2023-08-30T07:58:15;15.10;;;11.18;;
52708;SDS011;38606;52.986;6.980;2023-08-30T08:00:42;14.90;;;10.85;;
52708;SDS011;38606;52.986;6.980;2023-08-30T08:03:08;15.80;;;11.45;;
52708;SDS011;38606;52.986;6.980;2023-08-30T08:05:35;16.83;;;11.60;;
52708;SDS011;38606;52.986;6.980;2023-08-30T08:08:01;19.25;;;12.57;;
52708;SDS011;38606;52.986;6.980;2023-08-30T08:10:27;16.33;;;11.38;;
52708;SDS011;38606;52.986;6.980;2023-08-30T08:12:57;17.98;;;11.65;;
52708;SDS011;38606;52.986;6.980;2023-08-30T08:15:23;16.90;;;11.05;;
52708;SDS011;38606;52.986;6.980;2023-08-30T08:17:48;15.02;;;11.23;;
52708;SDS011;38606;52.986;6.980;2023-08-30T08:20:14;16.88;;;11.20;;
52708;SDS011;38606;52.986;6.980;2023-08-30T08:22:40;19.02;;;11.93;;
52708;SDS011;38606;52.986;6.980;2023-08-30T08:25:06;15.38;;;10.82;;
52708;SDS011;38606;52.986;6.980;2023-08-30T08:27:35;15.18;;;10.50;;
52708;SDS011;38606;52.986;6.980;2023-08-30T08:30:01;15.90;;;11.20;;
52708;SDS011;38606;52.986;6.980;2023-08-30T08:32:29;16.80;;;11.05;;
52708;SDS011;38606;52.986;6.980;2023-08-30T08:34:55;17.30;;;11.25;;
52708;SDS011;38606;52.986;6.980;2023-08-30T08:37:22;17.85;;;11.27;;
52708;SDS011;38606;52.986;6.980;2023-08-30T08:39:47;15.93;;;10.88;;
52708;SDS011;38606;52.986;6.980;2023-08-30T08:42:16;18.38;;;11.40;;
52708;SDS011;38606;52.986;6.980;2023-08-30T08:44:51;18.83;;;11.07;;
52708;SDS011;38606;52.986;6.980;2023-08-30T08:47:20;15.57;;;10.65;;
52708;SDS011;38606;52.986;6.980;2023-08-30T08:49:49;18.42;;;11.57;;
52708;SDS011;38606;52.986;6.980;2023-08-30T08:52:16;18.77;;;11.10;;
52708;SDS011;38606;52.986;6.980;2023-08-30T08:54:42;17.88;;;10.95;;
52708;SDS011;38606;52.986;6.980;2023-08-30T08:57:08;20.83;;;12.07;;
52708;SDS011;38606;52.986;6.980;2023-08-30T08:59:34;15.77;;;11.13;;
52708;SDS011;38606;52.986;6.980;2023-08-30T09:02:00;15.20;;;10.85;;
52708;SDS011;38606;52.986;6.980;2023-08-30T09:04:28;16.23;;;11.18;;
52708;SDS011;38606;52.986;6.980;2023-08-30T09:06:56;17.13;;;10.43;;
52708;SDS011;38606;52.986;6.980;2023-08-30T09:09:23;15.32;;;10.68;;
52708;SDS011;38606;52.986;6.980;2023-08-30T09:11:49;13.73;;;10.20;;
52708;SDS011;38606;52.986;6.980;2023-08-30T09:14:15;14.45;;;11.10;;
52708;SDS011;38606;52.986;6.980;2023-08-30T09:16:40;15.57;;;10.25;;
52708;SDS011;38606;52.986;6.980;2023-08-30T09:19:06;13.25;;;10.38;;
52708;SDS011;38606;52.986;6.980;2023-08-30T09:21:32;16.73;;;10.35;;
52708;SDS011;38606;52.986;6.980;2023-08-30T09:23:59;12.77;;;9.00;;
52708;SDS011;38606;52.986;6.980;2023-08-30T09:26:26;17.35;;;9.43;;
52708;SDS011;38606;52.986;6.980;2023-08-30T09:29:01;14.25;;;8.50;;
52708;SDS011;38606;52.986;6.980;2023-08-30T09:31:36;12.38;;;8.50;;
52708;SDS011;38606;52.986;6.980;2023-08-30T09:34:04;13.10;;;8.48;;
52708;SDS011;38606;52.986;6.980;2023-08-30T09:36:37;11.60;;;7.95;;
52708;SDS011;38606;52.986;6.980;2023-08-30T09:39:05;12.50;;;8.95;;
52708;SDS011;38606;52.986;6.980;2023-08-30T09:41:35;12.07;;;8.00;;
52708;SDS011;38606;52.986;6.980;2023-08-30T09:44:11;13.13;;;8.98;;
52708;SDS011;38606;52.986;6.980;2023-08-30T09:46:48;10.00;;;7.53;;
52708;SDS011;38606;52.986;6.980;2023-08-30T09:49:21;10.68;;;7.93;;
52708;SDS011;38606;52.986;6.980;2023-08-30T09:51:50;11.60;;;8.50;;
52708;SDS011;38606;52.986;6.980;2023-08-30T09:54:24;12.15;;;7.80;;
52708;SDS011;38606;52.986;6.980;2023-08-30T09:59:18;13.13;;;8.57;;
52708;SDS011;38606;52.986;6.980;2023-08-30T10:01:46;13.82;;;9.23;;
52708;SDS011;38606;52.986;6.980;2023-08-30T10:04:13;12.73;;;9.30;;
52708;SDS011;38606;52.986;6.980;2023-08-30T10:06:39;15.02;;;9.93;;
52708;SDS011;38606;52.986;6.980;2023-08-30T10:09:06;11.57;;;8.90;;
52708;SDS011;38606;52.986;6.980;2023-08-30T10:11:36;14.85;;;8.80;;
52708;SDS011;38606;52.986;6.980;2023-08-30T10:14:03;13.27;;;9.90;;
52708;SDS011;38606;52.986;6.980;2023-08-30T10:16:43;13.25;;;9.80;;
52708;SDS011;38606;52.986;6.980;2023-08-30T10:22:04;12.45;;;9.23;;
52708;SDS011;38606;52.986;6.980;2023-08-30T10:24:42;13.40;;;9.45;;
52708;SDS011;38606;52.986;6.980;2023-08-30T10:27:11;16.05;;;10.50;;
52708;SDS011;38606;52.986;6.980;2023-08-30T10:29:40;16.80;;;11.25;;
52708;SDS011;38606;52.986;6.980;2023-08-30T10:32:07;17.08;;;10.75;;
52708;SDS011;38606;52.986;6.980;2023-08-30T10:34:33;16.23;;;11.07;;
52708;SDS011;38606;52.986;6.980;2023-08-30T10:37:00;16.50;;;11.30;;
52708;SDS011;38606;52.986;6.980;2023-08-30T10:42:24;15.05;;;11.05;;
52708;SDS011;38606;52.986;6.980;2023-08-30T10:44:50;16.08;;;11.60;;
52708;SDS011;38606;52.986;6.980;2023-08-30T10:47:20;16.58;;;11.93;;
52708;SDS011;38606;52.986;6.980;2023-08-30T10:49:48;15.73;;;10.90;;
52708;SDS011;38606;52.986;6.980;2023-08-30T10:52:14;13.82;;;10.75;;
52708;SDS011;38606;52.986;6.980;2023-08-30T10:54:40;16.75;;;12.48;;
52708;SDS011;38606;52.986;6.980;2023-08-30T10:57:12;14.45;;;10.57;;
52708;SDS011;38606;52.986;6.980;2023-08-30T10:59:39;16.60;;;11.30;;
52708;SDS011;38606;52.986;6.980;2023-08-30T11:02:05;18.65;;;11.25;;
52708;SDS011;38606;52.986;6.980;2023-08-30T11:04:31;15.63;;;10.65;;
52708;SDS011;38606;52.986;6.980;2023-08-30T11:06:57;14.93;;;10.50;;
52708;SDS011;38606;52.986;6.980;2023-08-30T11:09:24;17.65;;;9.80;;
52708;SDS011;38606;52.986;6.980;2023-08-30T11:11:50;13.98;;;9.43;;
52708;SDS011;38606;52.986;6.980;2023-08-30T11:14:16;11.95;;;7.32;;
52708;SDS011;38606;52.986;6.980;2023-08-30T11:16:43;7.57;;;5.85;;
52708;SDS011;38606;52.986;6.980;2023-08-30T11:19:10;9.35;;;6.28;;
52708;SDS011;38606;52.986;6.980;2023-08-30T11:21:42;7.93;;;6.20;;
52708;SDS011;38606;52.986;6.980;2023-08-30T11:24:09;10.48;;;7.05;;
52708;SDS011;38606;52.986;6.980;2023-08-30T11:26:36;9.05;;;6.78;;
52708;SDS011;38606;52.986;6.980;2023-08-30T11:29:05;7.90;;;6.05;;
52708;SDS011;38606;52.986;6.980;2023-08-30T11:31:31;9.70;;;6.90;;
52708;SDS011;38606;52.986;6.980;2023-08-30T11:33:58;8.35;;;6.25;;
52708;SDS011;38606;52.986;6.980;2023-08-30T11:36:30;13.25;;;7.25;;
52708;SDS011;38606;52.986;6.980;2023-08-30T11:38:57;10.45;;;6.97;;
52708;SDS011;38606;52.986;6.980;2023-08-30T11:41:23;7.82;;;6.43;;
52708;SDS011;38606;52.986;6.980;2023-08-30T11:43:50;7.53;;;6.30;;
52708;SDS011;38606;52.986;6.980;2023-08-30T11:46:17;8.48;;;6.70;;
52708;SDS011;38606;52.986;6.980;2023-08-30T11:48:43;8.05;;;6.28;;
52708;SDS011;38606;52.986;6.980;2023-08-30T11:51:10;9.68;;;6.93;;
52708;SDS011;38606;52.986;6.980;2023-08-30T11:53:37;9.63;;;7.60;;
52708;SDS011;38606;52.986;6.980;2023-08-30T11:56:03;9.68;;;7.85;;
52708;SDS011;38606;52.986;6.980;2023-08-30T11:58:33;10.80;;;8.68;;
52708;SDS011;38606;52.986;6.980;2023-08-30T12:01:00;12.52;;;9.23;;
52708;SDS011;38606;52.986;6.980;2023-08-30T12:03:27;12.05;;;9.43;;
52708;SDS011;38606;52.986;6.980;2023-08-30T12:05:56;12.80;;;9.23;;
52708;SDS011;38606;52.986;6.980;2023-08-30T12:08:23;13.40;;;9.73;;
52708;SDS011;38606;52.986;6.980;2023-08-30T12:10:53;10.77;;;9.18;;
52708;SDS011;38606;52.986;6.980;2023-08-30T12:13:53;12.50;;;9.02;;
52708;SDS011;38606;52.986;6.980;2023-08-30T12:16:16;11.45;;;9.45;;
52708;SDS011;38606;52.986;6.980;2023-08-30T12:18:43;11.25;;;8.70;;
52708;SDS011;38606;52.986;6.980;2023-08-30T12:21:09;12.98;;;9.43;;
52708;SDS011;38606;52.986;6.980;2023-08-30T12:23:35;12.15;;;9.88;;
52708;SDS011;38606;52.986;6.980;2023-08-30T12:26:04;11.93;;;10.10;;
52708;SDS011;38606;52.986;6.980;2023-08-30T12:28:31;11.00;;;9.48;;
52708;SDS011;38606;52.986;6.980;2023-08-30T12:31:01;11.18;;;9.60;;
52708;SDS011;38606;52.986;6.980;2023-08-30T12:33:32;12.75;;;10.32;;
52708;SDS011;38606;52.986;6.980;2023-08-30T12:35:59;11.90;;;9.90;;
52708;SDS011;38606;52.986;6.980;2023-08-30T12:38:25;12.70;;;9.95;;
52708;SDS011;38606;52.986;6.980;2023-08-30T12:40:52;17.98;;;10.98;;
52708;SDS011;38606;52.986;6.980;2023-08-30T12:43:19;15.10;;;10.68;;
52708;SDS011;38606;52.986;6.980;2023-08-30T12:45:45;14.65;;;10.65;;
52708;SDS011;38606;52.986;6.980;2023-08-30T12:48:13;13.00;;;10.70;;
52708;SDS011;38606;52.986;6.980;2023-08-30T12:50:40;11.93;;;10.38;;
52708;SDS011;38606;52.986;6.980;2023-08-30T12:53:08;12.98;;;10.57;;
52708;SDS011;38606;52.986;6.980;2023-08-30T12:55:34;12.18;;;10.75;;
52708;SDS011;38606;52.986;6.980;2023-08-30T12:58:00;13.82;;;11.07;;
52708;SDS011;38606;52.986;6.980;2023-08-30T13:00:26;14.07;;;11.32;;
52708;SDS011;38606;52.986;6.980;2023-08-30T13:02:52;12.55;;;10.82;;
52708;SDS011;38606;52.986;6.980;2023-08-30T13:05:18;13.75;;;10.80;;
52708;SDS011;38606;52.986;6.980;2023-08-30T13:07:44;16.02;;;11.52;;
52708;SDS011;38606;52.986;6.980;2023-08-30T13:10:10;16.15;;;11.77;;
52708;SDS011;38606;52.986;6.980;2023-08-30T13:12:36;14.60;;;11.60;;
52708;SDS011;38606;52.986;6.980;2023-08-30T13:15:06;13.88;;;11.52;;
52708;SDS011;38606;52.986;6.980;2023-08-30T13:17:32;13.77;;;11.60;;
52708;SDS011;38606;52.986;6.980;2023-08-30T13:19:58;14.02;;;11.30;;
52708;SDS011;38606;52.986;6.980;2023-08-30T13:22:24;18.08;;;11.25;;
52708;SDS011;38606;52.986;6.980;2023-08-30T13:24:51;17.38;;;12.15;;
52708;SDS011;38606;52.986;6.980;2023-08-30T13:27:17;15.60;;;13.00;;
52708;SDS011;38606;52.986;6.980;2023-08-30T13:29:43;18.20;;;12.30;;
52708;SDS011;38606;52.986;6.980;2023-08-30T13:32:09;16.65;;;11.90;;
52708;SDS011;38606;52.986;6.980;2023-08-30T13:34:35;14.63;;;11.90;;
52708;SDS011;38606;52.986;6.980;2023-08-30T13:37:00;14.60;;;11.35;;
52708;SDS011;38606;52.986;6.980;2023-08-30T13:39:26;13.93;;;12.32;;
52708;SDS011;38606;52.986;6.980;2023-08-30T13:41:52;13.18;;;11.57;;
52708;SDS011;38606;52.986;6.980;2023-08-30T13:44:18;12.23;;;10.93;;
52708;SDS011;38606;52.986;6.980;2023-08-30T13:46:44;13.30;;;11.00;;
52708;SDS011;38606;52.986;6.980;2023-08-30T13:49:11;13.10;;;10.93;;
52708;SDS011;38606;52.986;6.980;2023-08-30T13:51:37;12.63;;;10.77;;
52708;SDS011;38606;52.986;6.980;2023-08-30T13:54:03;11.77;;;10.52;;
52708;SDS011;38606;52.986;6.980;2023-08-30T13:56:29;13.15;;;10.35;;
52708;SDS011;38606;52.986;6.980;2023-08-30T13:58:55;11.27;;;10.00;;
52708;SDS011;38606;52.986;6.980;2023-08-30T14:01:21;10.75;;;9.65;;
52708;SDS011;38606;52.986;6.980;2023-08-30T14:03:47;10.05;;;9.05;;
52708;SDS011;38606;52.986;6.980;2023-08-30T14:06:13;10.13;;;9.07;;
52708;SDS011;38606;52.986;6.980;2023-08-30T14:08:39;9.00;;;8.10;;
52708;SDS011;38606;52.986;6.980;2023-08-30T14:11:05;10.00;;;8.98;;
52708;SDS011;38606;52.986;6.980;2023-08-30T14:13:30;9.73;;;8.23;;
52708;SDS011;38606;52.986;6.980;2023-08-30T14:16:04;9.77;;;7.63;;
52708;SDS011;38606;52.986;6.980;2023-08-30T14:18:29;9.90;;;7.80;;
52708;SDS011;38606;52.986;6.980;2023-08-30T14:20:56;8.00;;;7.10;;
52708;SDS011;38606;52.986;6.980;2023-08-30T14:23:23;8.40;;;7.60;;
52708;SDS011;38606;52.986;6.980;2023-08-30T14:26:04;7.22;;;6.50;;
52708;SDS011;38606;52.986;6.980;2023-08-30T14:28:40;6.25;;;5.65;;
52708;SDS011;38606;52.986;6.980;2023-08-30T14:31:07;7.43;;;6.10;;
52708;SDS011;38606;52.986;6.980;2023-08-30T14:33:34;6.20;;;5.60;;
52708;SDS011;38606;52.986;6.980;2023-08-30T14:35:59;10.45;;;8.63;;
52708;SDS011;38606;52.986;6.980;2023-08-30T14:38:27;10.10;;;8.55;;
52708;SDS011;38606;52.986;6.980;2023-08-30T14:40:57;10.70;;;7.97;;